sensor_id;sensor_type;location;lat;lon;timestamp;pressure;altitude;pressure_sealevel;temperature;humidity
44131;BME280;29792;48.726;9.248;2023-03-12T00:01:38;96519.94;;;0.38;76.15
44131;BME280;29792;48.726;9.248;2023-03-12T00:04:04;96525.78;;;0.39;76.32
44131;BME280;29792;48.726;9.248;2023-03-12T00:06:29;96509.97;;;0.35;76.19
44131;BME280;29792;48.726;9.248;2023-03-12T00:08:54;96515.91;;;0.34;75.94
44131;BME280;29792;48.726;9.248;2023-03-12T00:11:20;96517.72;;;0.32;76.60
44131;BME280;29792;48.726;9.248;2023-03-12T00:13:50;96524.66;;;0.27;77.35
44131;BME280;29792;48.726;9.248;2023-03-12T00:16:16;96523.19;;;0.23;77.36
44131;BME280;29792;48.726;9.248;2023-03-12T00:18:42;96526.78;;;0.18;77.83
44131;BME280;29792;48.726;9.248;2023-03-12T00:21:08;96525.38;;;0.12;79.37
44131;BME280;29792;48.726;9.248;2023-03-12T00:23:34;96527.13;;;0.10;78.91
44131;BME280;29792;48.726;9.248;2023-03-12T00:26:08;96527.38;;;0.06;80.02
44131;BME280;29792;48.726;9.248;2023-03-12T00:28:34;96522.53;;;0.01;80.24
44131;BME280;29792;48.726;9.248;2023-03-12T00:31:01;96526.84;;;-0.01;80.48
44131;BME280;29792;48.726;9.248;2023-03-12T00:33:27;96522.75;;;-0.04;80.18
44131;BME280;29792;48.726;9.248;2023-03-12T00:35:54;96525.31;;;-0.05;80.14
44131;BME280;29792;48.726;9.248;2023-03-12T00:38:20;96516.16;;;-0.06;80.60
44131;BME280;29792;48.726;9.248;2023-03-12T00:40:45;96501.94;;;-0.07;80.66
44131;BME280;29792;48.726;9.248;2023-03-12T00:43:10;96509.56;;;-0.09;80.54
44131;BME280;29792;48.726;9.248;2023-03-12T00:45:36;96518.81;;;-0.09;80.80
44131;BME280;29792;48.726;9.248;2023-03-12T00:48:01;96518.00;;;-0.10;80.88
44131;BME280;29792;48.726;9.248;2023-03-12T00:50:26;96511.28;;;-0.09;80.82
44131;BME280;29792;48.726;9.248;2023-03-12T00:52:52;96506.31;;;-0.11;81.08
44131;BME280;29792;48.726;9.248;2023-03-12T00:55:17;96518.81;;;-0.09;80.56
44131;BME280;29792;48.726;9.248;2023-03-12T00:57:42;96512.22;;;-0.12;81.05
44131;BME280;29792;48.726;9.248;2023-03-12T01:00:09;96511.47;;;-0.14;81.36
44131;BME280;29792;48.726;9.248;2023-03-12T01:02:36;96501.56;;;-0.17;81.64
44131;BME280;29792;48.726;9.248;2023-03-12T01:05:02;96499.03;;;-0.17;80.94
44131;BME280;29792;48.726;9.248;2023-03-12T01:07:28;96500.66;;;-0.16;81.51
44131;BME280;29792;48.726;9.248;2023-03-12T01:09:54;96498.94;;;-0.15;81.92
44131;BME280;29792;48.726;9.248;2023-03-12T01:12:19;96503.97;;;-0.15;82.13
44131;BME280;29792;48.726;9.248;2023-03-12T01:14:44;96506.44;;;-0.14;81.90
44131;BME280;29792;48.726;9.248;2023-03-12T01:17:10;96500.50;;;-0.13;81.55
44131;BME280;29792;48.726;9.248;2023-03-12T01:19:35;96503.84;;;-0.12;81.51
44131;BME280;29792;48.726;9.248;2023-03-12T01:22:00;96509.56;;;-0.09;82.55
44131;BME280;29792;48.726;9.248;2023-03-12T01:24:26;96501.09;;;-0.08;82.81
44131;BME280;29792;48.726;9.248;2023-03-12T01:26:51;96511.09;;;-0.06;83.35
44131;BME280;29792;48.726;9.248;2023-03-12T01:29:16;96504.31;;;-0.04;84.32
44131;BME280;29792;48.726;9.248;2023-03-12T01:31:42;96500.91;;;-0.03;84.24
44131;BME280;29792;48.726;9.248;2023-03-12T01:34:09;96510.16;;;-0.04;85.15
44131;BME280;29792;48.726;9.248;2023-03-12T01:36:35;96507.50;;;-0.01;85.75
44131;BME280;29792;48.726;9.248;2023-03-12T01:39:00;96503.44;;;-0.03;86.01
44131;BME280;29792;48.726;9.248;2023-03-12T01:41:28;96512.69;;;-0.04;85.80
44131;BME280;29792;48.726;9.248;2023-03-12T01:43:53;96509.41;;;-0.06;86.69
44131;BME280;29792;48.726;9.248;2023-03-12T01:51:54;96523.63;;;-0.05;88.25
44131;BME280;29792;48.726;9.248;2023-03-12T01:54:31;96504.31;;;-0.04;88.32
44131;BME280;29792;48.726;9.248;2023-03-12T01:56:58;96515.94;;;-0.02;88.75
44131;BME280;29792;48.726;9.248;2023-03-12T01:59:28;96513.38;;;0.00;88.39
44131;BME280;29792;48.726;9.248;2023-03-12T02:01:55;96507.50;;;-0.01;88.76
44131;BME280;29792;48.726;9.248;2023-03-12T02:04:25;96505.72;;;0.02;89.26
44131;BME280;29792;48.726;9.248;2023-03-12T02:07:04;96502.31;;;0.03;89.63
44131;BME280;29792;48.726;9.248;2023-03-12T02:09:31;96515.53;;;0.08;90.25
44131;BME280;29792;48.726;9.248;2023-03-12T02:11:57;96508.78;;;0.08;89.37
44131;BME280;29792;48.726;9.248;2023-03-12T02:14:23;96511.22;;;0.10;89.28
44131;BME280;29792;48.726;9.248;2023-03-12T02:16:48;96506.19;;;0.10;89.79
44131;BME280;29792;48.726;9.248;2023-03-12T02:19:42;96512.78;;;0.12;90.04
44131;BME280;29792;48.726;9.248;2023-03-12T02:22:13;96507.50;;;0.17;90.82
44131;BME280;29792;48.726;9.248;2023-03-12T02:24:51;96505.91;;;0.16;90.12
44131;BME280;29792;48.726;9.248;2023-03-12T02:27:18;96515.22;;;0.14;90.40
44131;BME280;29792;48.726;9.248;2023-03-12T02:29:45;96509.56;;;0.09;90.40
44131;BME280;29792;48.726;9.248;2023-03-12T02:32:17;96505.47;;;0.08;91.18
44131;BME280;29792;48.726;9.248;2023-03-12T02:34:44;96508.03;;;0.06;91.33
44131;BME280;29792;48.726;9.248;2023-03-12T02:37:09;96508.09;;;0.05;91.34
44131;BME280;29792;48.726;9.248;2023-03-12T02:39:34;96509.94;;;0.01;91.36
44131;BME280;29792;48.726;9.248;2023-03-12T02:42:00;96512.56;;;-0.01;91.06
44131;BME280;29792;48.726;9.248;2023-03-12T02:44:29;96511.03;;;-0.05;92.25
44131;BME280;29792;48.726;9.248;2023-03-12T02:46:57;96509.28;;;-0.03;92.11
44131;BME280;29792;48.726;9.248;2023-03-12T02:49:26;96510.22;;;-0.05;92.39
44131;BME280;29792;48.726;9.248;2023-03-12T02:51:53;96503.56;;;-0.06;92.55
44131;BME280;29792;48.726;9.248;2023-03-12T02:54:19;96511.19;;;-0.08;92.47
44131;BME280;29792;48.726;9.248;2023-03-12T02:56:44;96511.28;;;-0.09;92.39
44131;BME280;29792;48.726;9.248;2023-03-12T02:59:10;96507.19;;;-0.12;92.83
44131;BME280;29792;48.726;9.248;2023-03-12T03:01:37;96512.44;;;-0.16;93.14
44131;BME280;29792;48.726;9.248;2023-03-12T03:04:03;96510.00;;;-0.18;93.04
44131;BME280;29792;48.726;9.248;2023-03-12T03:06:29;96511.75;;;-0.20;93.00
44131;BME280;29792;48.726;9.248;2023-03-12T03:08:56;96506.03;;;-0.23;93.42
44131;BME280;29792;48.726;9.248;2023-03-12T03:11:21;96501.16;;;-0.26;94.23
44131;BME280;29792;48.726;9.248;2023-03-12T03:13:50;96505.38;;;-0.27;94.18
44131;BME280;29792;48.726;9.248;2023-03-12T03:16:15;96507.19;;;-0.30;94.60
44131;BME280;29792;48.726;9.248;2023-03-12T03:18:40;96506.47;;;-0.32;95.06
44131;BME280;29792;48.726;9.248;2023-03-12T03:21:07;96500.69;;;-0.34;94.24
44131;BME280;29792;48.726;9.248;2023-03-12T03:23:34;96494.97;;;-0.38;95.61
44131;BME280;29792;48.726;9.248;2023-03-12T03:26:00;96500.00;;;-0.38;95.14
44131;BME280;29792;48.726;9.248;2023-03-12T03:28:26;96484.97;;;-0.40;95.32
44131;BME280;29792;48.726;9.248;2023-03-12T03:30:53;96474.84;;;-0.38;95.44
44131;BME280;29792;48.726;9.248;2023-03-12T03:33:22;96483.13;;;-0.36;96.23
44131;BME280;29792;48.726;9.248;2023-03-12T03:35:48;96483.06;;;-0.34;96.29
44131;BME280;29792;48.726;9.248;2023-03-12T03:38:13;96477.88;;;-0.31;96.39
44131;BME280;29792;48.726;9.248;2023-03-12T03:40:39;96484.50;;;-0.29;96.55
44131;BME280;29792;48.726;9.248;2023-03-12T03:43:04;96482.72;;;-0.27;96.42
44131;BME280;29792;48.726;9.248;2023-03-12T03:45:29;96483.47;;;-0.25;96.62
44131;BME280;29792;48.726;9.248;2023-03-12T03:47:55;96481.69;;;-0.23;97.45
44131;BME280;29792;48.726;9.248;2023-03-12T03:50:20;96490.00;;;-0.21;97.40
44131;BME280;29792;48.726;9.248;2023-03-12T03:52:46;96479.78;;;-0.18;97.05
44131;BME280;29792;48.726;9.248;2023-03-12T03:55:11;96487.13;;;-0.13;97.45
44131;BME280;29792;48.726;9.248;2023-03-12T03:57:36;96486.97;;;-0.10;97.21
44131;BME280;29792;48.726;9.248;2023-03-12T04:00:02;96488.47;;;-0.06;97.98
44131;BME280;29792;48.726;9.248;2023-03-12T04:02:32;96491.72;;;-0.04;97.74
44131;BME280;29792;48.726;9.248;2023-03-12T04:04:58;96486.63;;;-0.03;97.67
44131;BME280;29792;48.726;9.248;2023-03-12T04:07:24;96485.75;;;-0.02;97.38
44131;BME280;29792;48.726;9.248;2023-03-12T04:09:49;96478.84;;;0.02;98.09
44131;BME280;29792;48.726;9.248;2023-03-12T04:12:15;96474.56;;;0.04;97.56
44131;BME280;29792;48.726;9.248;2023-03-12T04:14:41;96481.22;;;0.05;98.09
44131;BME280;29792;48.726;9.248;2023-03-12T04:17:07;96469.41;;;0.07;97.62
44131;BME280;29792;48.726;9.248;2023-03-12T04:19:32;96465.00;;;0.11;97.70
44131;BME280;29792;48.726;9.248;2023-03-12T04:21:58;96457.47;;;0.11;97.96
44131;BME280;29792;48.726;9.248;2023-03-12T04:24:23;96461.47;;;0.15;97.95
44131;BME280;29792;48.726;9.248;2023-03-12T04:26:48;96466.50;;;0.15;97.67
44131;BME280;29792;48.726;9.248;2023-03-12T04:29:14;96471.38;;;0.18;97.19
44131;BME280;29792;48.726;9.248;2023-03-12T04:31:39;96471.38;;;0.18;97.72
44131;BME280;29792;48.726;9.248;2023-03-12T04:34:04;96472.13;;;0.20;97.30
44131;BME280;29792;48.726;9.248;2023-03-12T04:36:30;96468.72;;;0.21;97.47
44131;BME280;29792;48.726;9.248;2023-03-12T04:38:55;96470.19;;;0.25;97.44
44131;BME280;29792;48.726;9.248;2023-03-12T04:41:21;96475.97;;;0.27;97.84
44131;BME280;29792;48.726;9.248;2023-03-12T04:43:46;96485.91;;;0.30;97.62
44131;BME280;29792;48.726;9.248;2023-03-12T04:46:11;96482.50;;;0.31;97.85
44131;BME280;29792;48.726;9.248;2023-03-12T04:48:37;96483.97;;;0.35;97.30
44131;BME280;29792;48.726;9.248;2023-03-12T04:51:03;96473.03;;;0.36;97.14
44131;BME280;29792;48.726;9.248;2023-03-12T04:53:28;96470.50;;;0.36;96.87
44131;BME280;29792;48.726;9.248;2023-03-12T04:55:53;96472.94;;;0.37;97.27
44131;BME280;29792;48.726;9.248;2023-03-12T04:58:19;96474.59;;;0.38;96.99
44131;BME280;29792;48.726;9.248;2023-03-12T05:00:46;96476.28;;;0.38;97.18
44131;BME280;29792;48.726;9.248;2023-03-12T05:03:13;96472.00;;;0.40;97.13
44131;BME280;29792;48.726;9.248;2023-03-12T05:05:38;96475.09;;;0.45;96.97
44131;BME280;29792;48.726;9.248;2023-03-12T05:08:04;96466.59;;;0.48;97.33
44131;BME280;29792;48.726;9.248;2023-03-12T05:10:29;96473.25;;;0.49;96.90
44131;BME280;29792;48.726;9.248;2023-03-12T05:12:54;96468.13;;;0.50;97.10
44131;BME280;29792;48.726;9.248;2023-03-12T05:15:19;96473.91;;;0.52;96.79
44131;BME280;29792;48.726;9.248;2023-03-12T05:17:45;96473.84;;;0.54;97.48
44131;BME280;29792;48.726;9.248;2023-03-12T05:20:11;96462.94;;;0.53;96.78
44131;BME280;29792;48.726;9.248;2023-03-12T05:22:36;96468.72;;;0.55;96.98
44131;BME280;29792;48.726;9.248;2023-03-12T05:25:09;96459.38;;;0.57;96.92
44131;BME280;29792;48.726;9.248;2023-03-12T05:27:35;96461.81;;;0.59;96.91
44131;BME280;29792;48.726;9.248;2023-03-12T05:30:01;96463.44;;;0.60;96.57
44131;BME280;29792;48.726;9.248;2023-03-12T05:32:26;96463.38;;;0.61;96.99
44131;BME280;29792;48.726;9.248;2023-03-12T05:34:51;96460.19;;;0.58;97.14
44131;BME280;29792;48.726;9.248;2023-03-12T05:37:17;96458.59;;;0.57;96.40
44131;BME280;29792;48.726;9.248;2023-03-12T05:39:42;96466.94;;;0.57;96.41
44131;BME280;29792;48.726;9.248;2023-03-12T05:42:11;96470.19;;;0.59;97.11
44131;BME280;29792;48.726;9.248;2023-03-12T05:44:37;96473.47;;;0.61;97.35
44131;BME280;29792;48.726;9.248;2023-03-12T05:47:02;96470.06;;;0.62;97.27
44131;BME280;29792;48.726;9.248;2023-03-12T05:49:27;96478.44;;;0.63;97.04
44131;BME280;29792;48.726;9.248;2023-03-12T05:51:52;96484.22;;;0.65;97.87
44131;BME280;29792;48.726;9.248;2023-03-12T05:54:18;96475.72;;;0.66;97.67
44131;BME280;29792;48.726;9.248;2023-03-12T05:56:43;96480.72;;;0.67;98.01
44131;BME280;29792;48.726;9.248;2023-03-12T05:59:08;96480.72;;;0.67;98.19
44131;BME280;29792;48.726;9.248;2023-03-12T06:01:37;96486.56;;;0.68;98.60
44131;BME280;29792;48.726;9.248;2023-03-12T06:04:02;96486.34;;;0.72;98.69
44131;BME280;29792;48.726;9.248;2023-03-12T06:06:33;96483.66;;;0.75;99.34
44131;BME280;29792;48.726;9.248;2023-03-12T06:08:59;96490.34;;;0.76;99.73
44131;BME280;29792;48.726;9.248;2023-03-12T06:11:24;96486.78;;;0.81;99.98
44131;BME280;29792;48.726;9.248;2023-03-12T06:13:49;96487.66;;;0.80;99.79
44131;BME280;29792;48.726;9.248;2023-03-12T06:16:18;96489.13;;;0.84;100.00
44131;BME280;29792;48.726;9.248;2023-03-12T06:18:43;96484.84;;;0.86;100.00
44131;BME280;29792;48.726;9.248;2023-03-12T06:21:14;96481.34;;;0.88;100.00
44131;BME280;29792;48.726;9.248;2023-03-12T06:23:40;96480.38;;;0.91;100.00
44131;BME280;29792;48.726;9.248;2023-03-12T06:26:07;96484.53;;;0.92;100.00
44131;BME280;29792;48.726;9.248;2023-03-12T06:28:32;96476.00;;;0.94;100.00
44131;BME280;29792;48.726;9.248;2023-03-12T06:30:57;96482.59;;;0.97;100.00
44131;BME280;29792;48.726;9.248;2023-03-12T06:33:23;96480.72;;;1.00;100.00
44131;BME280;29792;48.726;9.248;2023-03-12T06:35:48;96478.06;;;1.03;100.00
44131;BME280;29792;48.726;9.248;2023-03-12T06:38:13;96478.06;;;1.03;100.00
44131;BME280;29792;48.726;9.248;2023-03-12T06:40:38;96480.66;;;1.02;100.00
44131;BME280;29792;48.726;9.248;2023-03-12T06:43:04;96479.16;;;0.98;100.00
44131;BME280;29792;48.726;9.248;2023-03-12T06:45:29;96485.34;;;0.92;100.00
44131;BME280;29792;48.726;9.248;2023-03-12T06:47:54;96482.88;;;0.91;100.00
44131;BME280;29792;48.726;9.248;2023-03-12T06:50:20;96484.59;;;0.90;100.00
44131;BME280;29792;48.726;9.248;2023-03-12T06:52:45;96479.47;;;0.92;100.00
44131;BME280;29792;48.726;9.248;2023-03-12T06:55:10;96480.22;;;0.94;100.00
44131;BME280;29792;48.726;9.248;2023-03-12T06:57:36;96473.34;;;0.97;100.00
44131;BME280;29792;48.726;9.248;2023-03-12T07:00:02;96477.47;;;0.98;100.00
44131;BME280;29792;48.726;9.248;2023-03-12T07:02:28;96477.47;;;0.98;100.00
44131;BME280;29792;48.726;9.248;2023-03-12T07:04:53;96473.34;;;0.97;100.00
44131;BME280;29792;48.726;9.248;2023-03-12T07:07:18;96475.84;;;0.97;100.00
44131;BME280;29792;48.726;9.248;2023-03-12T07:09:44;96473.09;;;1.02;100.00
44131;BME280;29792;48.726;9.248;2023-03-12T07:12:09;96478.13;;;1.02;100.00
44131;BME280;29792;48.726;9.248;2023-03-12T07:14:34;96470.50;;;1.03;100.00
44131;BME280;29792;48.726;9.248;2023-03-12T07:17:00;96468.63;;;1.07;100.00
44131;BME280;29792;48.726;9.248;2023-03-12T07:19:27;96465.06;;;1.11;100.00
44131;BME280;29792;48.726;9.248;2023-03-12T07:21:54;96469.94;;;1.14;100.00
44131;BME280;29792;48.726;9.248;2023-03-12T07:24:19;96470.75;;;1.14;100.00
44131;BME280;29792;48.726;9.248;2023-03-12T07:26:44;96486.69;;;1.15;100.00
44131;BME280;29792;48.726;9.248;2023-03-12T07:29:10;96482.38;;;1.17;100.00
44131;BME280;29792;48.726;9.248;2023-03-12T07:31:35;96481.50;;;1.18;100.00
44131;BME280;29792;48.726;9.248;2023-03-12T07:34:01;96482.25;;;1.20;100.00
44131;BME280;29792;48.726;9.248;2023-03-12T07:36:27;96476.19;;;1.23;100.00
44131;BME280;29792;48.726;9.248;2023-03-12T07:38:54;96482.81;;;1.25;100.00
44131;BME280;29792;48.726;9.248;2023-03-12T07:41:22;96485.09;;;1.30;100.00
44131;BME280;29792;48.726;9.248;2023-03-12T07:43:47;96484.03;;;1.34;100.00
44131;BME280;29792;48.726;9.248;2023-03-12T07:46:13;96485.59;;;1.36;100.00
44131;BME280;29792;48.726;9.248;2023-03-12T07:48:38;96487.22;;;1.37;100.00
44131;BME280;29792;48.726;9.248;2023-03-12T07:51:04;96481.19;;;1.40;100.00
44131;BME280;29792;48.726;9.248;2023-03-12T07:53:29;96475.03;;;1.45;100.00
44131;BME280;29792;48.726;9.248;2023-03-12T07:55:54;96476.34;;;1.52;100.00
44131;BME280;29792;48.726;9.248;2023-03-12T07:58:20;96475.25;;;1.57;100.00
44131;BME280;29792;48.726;9.248;2023-03-12T08:00:45;96463.94;;;1.64;100.00
44131;BME280;29792;48.726;9.248;2023-03-12T08:03:11;96473.41;;;1.76;100.00
44131;BME280;29792;48.726;9.248;2023-03-12T08:05:37;96468.66;;;1.85;100.00
44131;BME280;29792;48.726;9.248;2023-03-12T08:08:02;96482.50;;;1.94;100.00
44131;BME280;29792;48.726;9.248;2023-03-12T08:10:27;96474.50;;;2.02;100.00
44131;BME280;29792;48.726;9.248;2023-03-12T08:12:53;96476.25;;;2.15;100.00
44131;BME280;29792;48.726;9.248;2023-03-12T08:15:18;96472.00;;;2.32;100.00
44131;BME280;29792;48.726;9.248;2023-03-12T08:17:44;96474.53;;;2.46;100.00
44131;BME280;29792;48.726;9.248;2023-03-12T08:20:10;96476.56;;;2.55;100.00
44131;BME280;29792;48.726;9.248;2023-03-12T08:22:37;96475.50;;;2.59;100.00
44131;BME280;29792;48.726;9.248;2023-03-12T08:25:03;96465.28;;;2.60;100.00
44131;BME280;29792;48.726;9.248;2023-03-12T08:27:29;96471.25;;;2.59;100.00
44131;BME280;29792;48.726;9.248;2023-03-12T08:29:54;96474.41;;;2.63;100.00
44131;BME280;29792;48.726;9.248;2023-03-12T08:32:20;96485.25;;;2.65;100.00
44131;BME280;29792;48.726;9.248;2023-03-12T08:34:45;96488.50;;;2.67;100.00
44131;BME280;29792;48.726;9.248;2023-03-12T08:37:10;96489.94;;;2.71;100.00
44131;BME280;29792;48.726;9.248;2023-03-12T08:39:35;96482.13;;;2.76;100.00
44131;BME280;29792;48.726;9.248;2023-03-12T08:42:01;96489.41;;;2.80;100.00
44131;BME280;29792;48.726;9.248;2023-03-12T08:44:26;96484.66;;;2.90;100.00
44131;BME280;29792;48.726;9.248;2023-03-12T08:46:52;96483.09;;;3.01;100.00
44131;BME280;29792;48.726;9.248;2023-03-12T08:49:19;96488.34;;;3.13;100.00
44131;BME280;29792;48.726;9.248;2023-03-12T08:51:44;96486.72;;;3.26;100.00
44131;BME280;29792;48.726;9.248;2023-03-12T08:54:09;96486.63;;;3.41;100.00
44131;BME280;29792;48.726;9.248;2023-03-12T08:56:35;96490.06;;;3.55;100.00
44131;BME280;29792;48.726;9.248;2023-03-12T08:59:08;96491.91;;;3.65;100.00
44131;BME280;29792;48.726;9.248;2023-03-12T09:01:34;96486.28;;;3.74;100.00
44131;BME280;29792;48.726;9.248;2023-03-12T09:03:59;96485.63;;;3.85;100.00
44131;BME280;29792;48.726;9.248;2023-03-12T09:06:26;96480.19;;;3.91;100.00
44131;BME280;29792;48.726;9.248;2023-03-12T09:08:51;96483.34;;;3.95;100.00
44131;BME280;29792;48.726;9.248;2023-03-12T09:11:17;96479.69;;;3.99;100.00
44131;BME280;29792;48.726;9.248;2023-03-12T09:13:43;96490.09;;;4.08;100.00
44131;BME280;29792;48.726;9.248;2023-03-12T09:16:08;96488.94;;;4.27;100.00
44131;BME280;29792;48.726;9.248;2023-03-12T09:18:34;96487.75;;;4.45;100.00
44131;BME280;29792;48.726;9.248;2023-03-12T09:21:00;96494.97;;;4.51;100.00
44131;BME280;29792;48.726;9.248;2023-03-12T09:23:26;96491.13;;;4.58;100.00
44131;BME280;29792;48.726;9.248;2023-03-12T09:25:52;96498.44;;;4.63;100.00
44131;BME280;29792;48.726;9.248;2023-03-12T09:28:18;96493.88;;;4.68;100.00
44131;BME280;29792;48.726;9.248;2023-03-12T09:30:44;96496.66;;;4.77;100.00
44131;BME280;29792;48.726;9.248;2023-03-12T09:33:09;96498.56;;;4.99;100.00
44131;BME280;29792;48.726;9.248;2023-03-12T09:35:35;96498.78;;;5.34;100.00
44131;BME280;29792;48.726;9.248;2023-03-12T09:38:01;96504.81;;;5.57;100.00
44131;BME280;29792;48.726;9.248;2023-03-12T09:40:29;96503.38;;;5.65;100.00
44131;BME280;29792;48.726;9.248;2023-03-12T09:42:58;96508.03;;;5.71;100.00
44131;BME280;29792;48.726;9.248;2023-03-12T09:45:26;96510.38;;;5.74;100.00
44131;BME280;29792;48.726;9.248;2023-03-12T09:48:04;96502.44;;;5.79;100.00
44131;BME280;29792;48.726;9.248;2023-03-12T09:50:35;96505.88;;;5.91;100.00
44131;BME280;29792;48.726;9.248;2023-03-12T09:55:44;96514.47;;;6.25;100.00
44131;BME280;29792;48.726;9.248;2023-03-12T09:58:18;96509.44;;;6.36;100.00
44131;BME280;29792;48.726;9.248;2023-03-12T10:00:46;96510.53;;;6.44;100.00
44131;BME280;29792;48.726;9.248;2023-03-12T10:03:26;96513.13;;;6.56;100.00
44131;BME280;29792;48.726;9.248;2023-03-12T10:06:13;96509.94;;;6.65;100.00
44131;BME280;29792;48.726;9.248;2023-03-12T10:09:02;96509.38;;;6.83;100.00
44131;BME280;29792;48.726;9.248;2023-03-12T10:25:39;96522.97;;;8.50;100.00
44131;BME280;29792;48.726;9.248;2023-03-12T10:28:14;96522.75;;;8.73;100.00
44131;BME280;29792;48.726;9.248;2023-03-12T10:30:52;96521.25;;;8.92;100.00
44131;BME280;29792;48.726;9.248;2023-03-12T10:33:19;96521.25;;;9.12;100.00
44131;BME280;29792;48.726;9.248;2023-03-12T10:35:47;96517.72;;;9.34;100.00
44131;BME280;29792;48.726;9.248;2023-03-12T10:38:18;96523.41;;;9.78;100.00
44131;BME280;29792;48.726;9.248;2023-03-12T10:40:46;96522.34;;;10.20;100.00
44131;BME280;29792;48.726;9.248;2023-03-12T10:43:11;96521.53;;;10.39;100.00
44131;BME280;29792;48.726;9.248;2023-03-12T10:48:10;96535.41;;;10.46;100.00
44131;BME280;29792;48.726;9.248;2023-03-12T10:50:41;96538.38;;;10.32;100.00
44131;BME280;29792;48.726;9.248;2023-03-12T10:53:26;96534.03;;;10.23;100.00
44131;BME280;29792;48.726;9.248;2023-03-12T10:58:35;96549.09;;;10.16;100.00
44131;BME280;29792;48.726;9.248;2023-03-12T11:01:03;96545.22;;;10.22;100.00
44131;BME280;29792;48.726;9.248;2023-03-12T11:03:30;96547.53;;;10.25;100.00
44131;BME280;29792;48.726;9.248;2023-03-12T11:05:59;96548.22;;;10.46;100.00
44131;BME280;29792;48.726;9.248;2023-03-12T11:08:28;96539.81;;;11.21;100.00
44131;BME280;29792;48.726;9.248;2023-03-12T11:10:55;96544.47;;;12.19;100.00
44131;BME280;29792;48.726;9.248;2023-03-12T11:16:22;96551.50;;;14.92;90.72
44131;BME280;29792;48.726;9.248;2023-03-12T11:18:57;96559.88;;;14.94;84.09
44131;BME280;29792;48.726;9.248;2023-03-12T11:21:24;96546.97;;;14.69;82.00
44131;BME280;29792;48.726;9.248;2023-03-12T11:26:23;96559.00;;;13.60;84.04
44131;BME280;29792;48.726;9.248;2023-03-12T11:28:51;96551.81;;;13.46;87.14
44131;BME280;29792;48.726;9.248;2023-03-12T11:31:27;96555.03;;;13.48;85.65
44131;BME280;29792;48.726;9.248;2023-03-12T11:34:01;96560.56;;;13.10;86.30
44131;BME280;29792;48.726;9.248;2023-03-12T11:36:50;96559.44;;;13.30;89.93
44131;BME280;29792;48.726;9.248;2023-03-12T11:42:42;96559.81;;;13.61;86.01
44131;BME280;29792;48.726;9.248;2023-03-12T11:50:59;96551.09;;;12.92;88.54
44131;BME280;29792;48.726;9.248;2023-03-12T11:56:24;96548.91;;;14.09;80.76
44131;BME280;29792;48.726;9.248;2023-03-12T12:04:45;96538.38;;;12.91;83.86
44131;BME280;29792;48.726;9.248;2023-03-12T12:15:15;96543.56;;;12.55;88.08
44131;BME280;29792;48.726;9.248;2023-03-12T12:17:51;96534.09;;;12.56;87.33
44131;BME280;29792;48.726;9.248;2023-03-12T12:20:42;96531.47;;;12.91;88.16
44131;BME280;29792;48.726;9.248;2023-03-12T12:23:30;96524.03;;;13.24;87.47
44131;BME280;29792;48.726;9.248;2023-03-12T12:26:13;96527.06;;;13.45;86.07
44131;BME280;29792;48.726;9.248;2023-03-12T12:29:08;96526.81;;;13.64;85.11
44131;BME280;29792;48.726;9.248;2023-03-12T12:31:56;96534.78;;;13.79;83.39
44131;BME280;29792;48.726;9.248;2023-03-12T12:37:26;96529.88;;;13.94;83.69
44131;BME280;29792;48.726;9.248;2023-03-12T12:40:24;96516.97;;;13.86;78.86
44131;BME280;29792;48.726;9.248;2023-03-12T12:42:59;96500.94;;;13.66;78.08
44131;BME280;29792;48.726;9.248;2023-03-12T12:45:27;96510.34;;;13.49;79.33
44131;BME280;29792;48.726;9.248;2023-03-12T12:48:07;96505.06;;;13.51;79.09
44131;BME280;29792;48.726;9.248;2023-03-12T12:50:38;96506.81;;;13.50;79.24
44131;BME280;29792;48.726;9.248;2023-03-12T12:53:13;96513.63;;;13.33;78.19
44131;BME280;29792;48.726;9.248;2023-03-12T12:55:51;96505.81;;;13.17;79.46
44131;BME280;29792;48.726;9.248;2023-03-12T12:58:25;96514.13;;;13.11;78.58
44131;BME280;29792;48.726;9.248;2023-03-12T13:00:57;96503.72;;;12.95;80.03
44131;BME280;29792;48.726;9.248;2023-03-12T13:03:25;96509.09;;;12.84;80.35
44131;BME280;29792;48.726;9.248;2023-03-12T13:11:21;96510.66;;;12.41;81.44
44131;BME280;29792;48.726;9.248;2023-03-12T13:16:39;96505.53;;;12.23;81.96
44131;BME280;29792;48.726;9.248;2023-03-12T13:22:03;96517.94;;;12.01;82.81
44131;BME280;29792;48.726;9.248;2023-03-12T13:24:49;96506.63;;;11.94;83.38
44131;BME280;29792;48.726;9.248;2023-03-12T13:29:43;96513.31;;;12.32;87.49
44131;BME280;29792;48.726;9.248;2023-03-12T13:35:28;96524.88;;;12.36;84.19
44131;BME280;29792;48.726;9.248;2023-03-12T13:45:32;96529.78;;;11.84;85.22
44131;BME280;29792;48.726;9.248;2023-03-12T13:48:01;96521.44;;;11.72;84.08
44131;BME280;29792;48.726;9.248;2023-03-12T13:50:40;96511.16;;;11.82;86.06
44131;BME280;29792;48.726;9.248;2023-03-12T13:53:15;96520.09;;;12.05;86.07
44131;BME280;29792;48.726;9.248;2023-03-12T13:55:41;96509.69;;;12.42;84.83
44131;BME280;29792;48.726;9.248;2023-03-12T13:58:13;96515.56;;;13.65;87.25
44131;BME280;29792;48.726;9.248;2023-03-12T14:00:54;96503.13;;;14.69;75.31
44131;BME280;29792;48.726;9.248;2023-03-12T14:03:25;96508.88;;;14.31;71.62
44131;BME280;29792;48.726;9.248;2023-03-12T14:05:59;96507.16;;;13.89;74.04
44131;BME280;29792;48.726;9.248;2023-03-12T14:14:14;96517.00;;;13.60;73.77
44131;BME280;29792;48.726;9.248;2023-03-12T14:16:46;96513.91;;;13.90;71.68
44131;BME280;29792;48.726;9.248;2023-03-12T14:19:16;96522.59;;;13.89;70.34
44131;BME280;29792;48.726;9.248;2023-03-12T14:21:46;96515.91;;;13.70;69.98
44131;BME280;29792;48.726;9.248;2023-03-12T14:24:26;96530.94;;;13.49;70.13
44131;BME280;29792;48.726;9.248;2023-03-12T14:26:53;96520.69;;;13.31;70.07
44131;BME280;29792;48.726;9.248;2023-03-12T14:29:35;96519.41;;;13.27;71.85
44131;BME280;29792;48.726;9.248;2023-03-12T14:32:11;96526.84;;;13.38;71.85
44131;BME280;29792;48.726;9.248;2023-03-12T14:34:41;96531.88;;;13.48;71.79
44131;BME280;29792;48.726;9.248;2023-03-12T14:39:42;96534.66;;;13.55;70.18
44131;BME280;29792;48.726;9.248;2023-03-12T14:42:08;96529.69;;;13.53;69.84